sensor_id;sensor_type;location;lat;lon;timestamp;P1;durP1;ratioP1;P2;durP2;ratioP2
62014;SDS011;47970;52.396;9.586;2023-03-01T00:01:57;12.55;;;5.20;;
62014;SDS011;47970;52.396;9.586;2023-03-01T00:04:22;12.57;;;5.43;;
62014;SDS011;47970;52.396;9.586;2023-03-01T00:06:47;13.43;;;5.82;;
62014;SDS011;47970;52.396;9.586;2023-03-01T00:09:13;13.20;;;5.68;;
62014;SDS011;47970;52.396;9.586;2023-03-01T00:11:38;16.80;;;6.28;;
62014;SDS011;47970;52.396;9.586;2023-03-01T00:14:04;13.40;;;5.23;;
62014;SDS011;47970;52.396;9.586;2023-03-01T00:16:33;9.88;;;4.95;;
62014;SDS011;47970;52.396;9.586;2023-03-01T00:18:58;9.82;;;4.90;;
62014;SDS011;47970;52.396;9.586;2023-03-01T00:21:24;13.95;;;6.03;;
62014;SDS011;47970;52.396;9.586;2023-03-01T00:23:49;12.82;;;5.30;;
62014;SDS011;47970;52.396;9.586;2023-03-01T00:26:15;17.55;;;6.10;;
62014;SDS011;47970;52.396;9.586;2023-03-01T00:28:41;20.65;;;5.50;;
62014;SDS011;47970;52.396;9.586;2023-03-01T00:31:08;12.63;;;5.57;;
62014;SDS011;47970;52.396;9.586;2023-03-01T00:33:34;14.27;;;5.72;;
62014;SDS011;47970;52.396;9.586;2023-03-01T00:35:59;11.02;;;5.40;;
62014;SDS011;47970;52.396;9.586;2023-03-01T00:38:25;18.83;;;6.25;;
62014;SDS011;47970;52.396;9.586;2023-03-01T00:40:53;14.52;;;6.20;;
62014;SDS011;47970;52.396;9.586;2023-03-01T00:43:18;13.85;;;5.75;;
62014;SDS011;47970;52.396;9.586;2023-03-01T00:45:44;18.42;;;6.03;;
62014;SDS011;47970;52.396;9.586;2023-03-01T00:48:09;14.48;;;5.85;;
62014;SDS011;47970;52.396;9.586;2023-03-01T00:50:34;14.90;;;6.70;;
62014;SDS011;47970;52.396;9.586;2023-03-01T00:53:00;14.25;;;6.20;;
62014;SDS011;47970;52.396;9.586;2023-03-01T00:55:25;15.15;;;6.60;;
62014;SDS011;47970;52.396;9.586;2023-03-01T00:57:50;15.73;;;5.43;;
62014;SDS011;47970;52.396;9.586;2023-03-01T01:00:15;13.43;;;5.75;;
62014;SDS011;47970;52.396;9.586;2023-03-01T01:02:41;18.48;;;6.40;;
62014;SDS011;47970;52.396;9.586;2023-03-01T01:05:06;17.98;;;6.60;;
62014;SDS011;47970;52.396;9.586;2023-03-01T01:07:32;17.75;;;6.32;;
62014;SDS011;47970;52.396;9.586;2023-03-01T01:09:57;15.02;;;6.80;;
62014;SDS011;47970;52.396;9.586;2023-03-01T01:12:22;14.68;;;6.68;;
62014;SDS011;47970;52.396;9.586;2023-03-01T01:14:47;14.27;;;6.30;;
62014;SDS011;47970;52.396;9.586;2023-03-01T01:17:12;16.73;;;7.15;;
62014;SDS011;47970;52.396;9.586;2023-03-01T01:19:38;16.30;;;5.97;;
62014;SDS011;47970;52.396;9.586;2023-03-01T01:22:03;13.95;;;6.85;;
62014;SDS011;47970;52.396;9.586;2023-03-01T01:24:28;15.52;;;5.72;;
62014;SDS011;47970;52.396;9.586;2023-03-01T01:26:54;17.73;;;6.30;;
62014;SDS011;47970;52.396;9.586;2023-03-01T01:29:19;15.10;;;5.97;;
62014;SDS011;47970;52.396;9.586;2023-03-01T01:31:44;15.70;;;6.35;;
62014;SDS011;47970;52.396;9.586;2023-03-01T01:34:14;14.02;;;6.07;;
62014;SDS011;47970;52.396;9.586;2023-03-01T01:36:39;15.57;;;6.53;;
62014;SDS011;47970;52.396;9.586;2023-03-01T01:39:05;14.27;;;5.90;;
62014;SDS011;47970;52.396;9.586;2023-03-01T01:41:30;15.52;;;5.93;;
62014;SDS011;47970;52.396;9.586;2023-03-01T01:44:10;15.10;;;5.88;;
62014;SDS011;47970;52.396;9.586;2023-03-01T01:47:19;13.77;;;5.78;;
62014;SDS011;47970;52.396;9.586;2023-03-01T01:49:59;15.23;;;6.63;;
62014;SDS011;47970;52.396;9.586;2023-03-01T01:52:18;13.05;;;6.13;;
62014;SDS011;47970;52.396;9.586;2023-03-01T01:54:50;15.27;;;5.93;;
62014;SDS011;47970;52.396;9.586;2023-03-01T01:57:22;22.33;;;7.18;;
62014;SDS011;47970;52.396;9.586;2023-03-01T01:59:51;17.23;;;7.25;;
62014;SDS011;47970;52.396;9.586;2023-03-01T02:02:17;20.65;;;7.53;;
62014;SDS011;47970;52.396;9.586;2023-03-01T02:04:43;22.70;;;7.35;;
62014;SDS011;47970;52.396;9.586;2023-03-01T02:07:14;16.17;;;7.57;;
62014;SDS011;47970;52.396;9.586;2023-03-01T02:09:40;20.88;;;7.13;;
62014;SDS011;47970;52.396;9.586;2023-03-01T02:12:06;15.90;;;7.03;;
62014;SDS011;47970;52.396;9.586;2023-03-01T02:14:32;14.25;;;5.85;;
62014;SDS011;47970;52.396;9.586;2023-03-01T02:16:57;12.80;;;7.50;;
62014;SDS011;47970;52.396;9.586;2023-03-01T02:19:26;14.30;;;7.00;;
62014;SDS011;47970;52.396;9.586;2023-03-01T02:22:00;18.17;;;6.10;;
62014;SDS011;47970;52.396;9.586;2023-03-01T02:27:11;14.13;;;5.80;;
62014;SDS011;47970;52.396;9.586;2023-03-01T02:29:37;12.43;;;5.97;;
62014;SDS011;47970;52.396;9.586;2023-03-01T02:32:02;21.20;;;6.20;;
62014;SDS011;47970;52.396;9.586;2023-03-01T02:34:28;18.58;;;7.10;;
62014;SDS011;47970;52.396;9.586;2023-03-01T02:37:05;16.30;;;6.43;;
62014;SDS011;47970;52.396;9.586;2023-03-01T02:39:45;12.50;;;5.82;;
62014;SDS011;47970;52.396;9.586;2023-03-01T02:42:12;17.73;;;7.15;;
62014;SDS011;47970;52.396;9.586;2023-03-01T02:44:38;16.50;;;6.15;;
62014;SDS011;47970;52.396;9.586;2023-03-01T02:47:03;21.42;;;6.75;;
62014;SDS011;47970;52.396;9.586;2023-03-01T02:49:30;13.00;;;6.13;;
62014;SDS011;47970;52.396;9.586;2023-03-01T02:56:49;15.80;;;6.63;;
62014;SDS011;47970;52.396;9.586;2023-03-01T02:59:15;20.10;;;7.20;;
62014;SDS011;47970;52.396;9.586;2023-03-01T03:01:41;13.57;;;5.78;;
62014;SDS011;47970;52.396;9.586;2023-03-01T03:04:07;15.90;;;7.10;;
62014;SDS011;47970;52.396;9.586;2023-03-01T03:06:34;20.00;;;6.78;;
62014;SDS011;47970;52.396;9.586;2023-03-01T03:09:00;15.68;;;6.63;;
62014;SDS011;47970;52.396;9.586;2023-03-01T03:11:26;12.75;;;5.78;;
62014;SDS011;47970;52.396;9.586;2023-03-01T03:13:51;16.65;;;7.20;;
62014;SDS011;47970;52.396;9.586;2023-03-01T03:16:17;11.70;;;6.05;;
62014;SDS011;47970;52.396;9.586;2023-03-01T03:18:42;14.25;;;6.18;;
62014;SDS011;47970;52.396;9.586;2023-03-01T03:21:08;15.05;;;6.38;;
62014;SDS011;47970;52.396;9.586;2023-03-01T03:23:35;15.23;;;5.78;;
62014;SDS011;47970;52.396;9.586;2023-03-01T03:26:01;14.02;;;5.80;;
62014;SDS011;47970;52.396;9.586;2023-03-01T03:28:26;13.80;;;6.40;;
62014;SDS011;47970;52.396;9.586;2023-03-01T03:30:51;12.87;;;6.17;;
62014;SDS011;47970;52.396;9.586;2023-03-01T03:33:16;14.38;;;5.93;;
62014;SDS011;47970;52.396;9.586;2023-03-01T03:35:46;17.52;;;6.35;;
62014;SDS011;47970;52.396;9.586;2023-03-01T03:38:12;14.00;;;6.82;;
62014;SDS011;47970;52.396;9.586;2023-03-01T03:40:45;15.98;;;7.13;;
62014;SDS011;47970;52.396;9.586;2023-03-01T03:45:35;16.07;;;5.43;;
62014;SDS011;47970;52.396;9.586;2023-03-01T03:48:01;13.70;;;5.90;;
62014;SDS011;47970;52.396;9.586;2023-03-01T03:50:27;12.93;;;6.05;;
62014;SDS011;47970;52.396;9.586;2023-03-01T03:52:52;15.73;;;6.05;;
62014;SDS011;47970;52.396;9.586;2023-03-01T03:55:18;12.20;;;6.18;;
62014;SDS011;47970;52.396;9.586;2023-03-01T03:57:44;14.55;;;6.20;;
62014;SDS011;47970;52.396;9.586;2023-03-01T04:00:13;15.27;;;6.38;;
62014;SDS011;47970;52.396;9.586;2023-03-01T04:02:39;16.75;;;6.50;;
62014;SDS011;47970;52.396;9.586;2023-03-01T04:05:04;14.65;;;5.97;;
62014;SDS011;47970;52.396;9.586;2023-03-01T04:07:29;13.88;;;6.22;;
62014;SDS011;47970;52.396;9.586;2023-03-01T04:09:55;13.20;;;6.37;;
62014;SDS011;47970;52.396;9.586;2023-03-01T04:12:20;19.02;;;6.82;;
62014;SDS011;47970;52.396;9.586;2023-03-01T04:14:48;16.73;;;6.75;;
62014;SDS011;47970;52.396;9.586;2023-03-01T04:17:13;13.35;;;6.32;;
62014;SDS011;47970;52.396;9.586;2023-03-01T04:19:38;15.93;;;6.57;;
62014;SDS011;47970;52.396;9.586;2023-03-01T04:22:03;12.77;;;6.30;;
62014;SDS011;47970;52.396;9.586;2023-03-01T04:24:34;14.02;;;5.43;;
62014;SDS011;47970;52.396;9.586;2023-03-01T04:26:59;22.75;;;6.60;;
62014;SDS011;47970;52.396;9.586;2023-03-01T04:29:24;13.67;;;6.30;;
62014;SDS011;47970;52.396;9.586;2023-03-01T04:31:49;16.23;;;6.57;;
62014;SDS011;47970;52.396;9.586;2023-03-01T04:34:14;14.37;;;5.63;;
62014;SDS011;47970;52.396;9.586;2023-03-01T04:36:40;14.73;;;6.53;;
62014;SDS011;47970;52.396;9.586;2023-03-01T04:39:05;13.60;;;6.47;;
62014;SDS011;47970;52.396;9.586;2023-03-01T04:41:37;21.95;;;6.68;;
62014;SDS011;47970;52.396;9.586;2023-03-01T04:44:03;16.48;;;7.70;;
62014;SDS011;47970;52.396;9.586;2023-03-01T04:46:29;17.45;;;6.78;;
62014;SDS011;47970;52.396;9.586;2023-03-01T04:48:54;15.85;;;6.72;;
62014;SDS011;47970;52.396;9.586;2023-03-01T04:51:20;18.33;;;7.13;;
62014;SDS011;47970;52.396;9.586;2023-03-01T04:53:45;13.07;;;7.25;;
62014;SDS011;47970;52.396;9.586;2023-03-01T04:56:10;17.83;;;6.35;;
62014;SDS011;47970;52.396;9.586;2023-03-01T04:58:35;16.50;;;6.88;;
62014;SDS011;47970;52.396;9.586;2023-03-01T05:01:01;14.65;;;6.38;;
62014;SDS011;47970;52.396;9.586;2023-03-01T05:03:26;15.52;;;6.78;;
62014;SDS011;47970;52.396;9.586;2023-03-01T05:05:53;15.82;;;6.28;;
62014;SDS011;47970;52.396;9.586;2023-03-01T05:08:18;14.57;;;5.90;;
62014;SDS011;47970;52.396;9.586;2023-03-01T05:10:52;15.57;;;6.63;;
62014;SDS011;47970;52.396;9.586;2023-03-01T05:13:18;17.85;;;7.55;;
62014;SDS011;47970;52.396;9.586;2023-03-01T05:15:57;14.35;;;7.25;;
62014;SDS011;47970;52.396;9.586;2023-03-01T05:18:23;18.88;;;7.07;;
62014;SDS011;47970;52.396;9.586;2023-03-01T05:20:50;16.38;;;7.13;;
62014;SDS011;47970;52.396;9.586;2023-03-01T05:23:17;15.55;;;8.10;;
62014;SDS011;47970;52.396;9.586;2023-03-01T05:25:43;14.77;;;7.63;;
62014;SDS011;47970;52.396;9.586;2023-03-01T05:28:10;13.45;;;6.45;;
62014;SDS011;47970;52.396;9.586;2023-03-01T05:30:36;17.95;;;7.30;;
62014;SDS011;47970;52.396;9.586;2023-03-01T05:33:03;23.80;;;7.88;;
62014;SDS011;47970;52.396;9.586;2023-03-01T05:35:29;17.67;;;7.88;;
62014;SDS011;47970;52.396;9.586;2023-03-01T05:37:54;21.83;;;7.68;;
62014;SDS011;47970;52.396;9.586;2023-03-01T05:40:20;17.20;;;7.85;;
62014;SDS011;47970;52.396;9.586;2023-03-01T05:42:50;18.35;;;7.03;;
62014;SDS011;47970;52.396;9.586;2023-03-01T05:45:16;16.75;;;6.80;;
62014;SDS011;47970;52.396;9.586;2023-03-01T05:47:42;20.17;;;7.10;;
62014;SDS011;47970;52.396;9.586;2023-03-01T05:50:15;19.95;;;7.38;;
62014;SDS011;47970;52.396;9.586;2023-03-01T05:52:44;14.93;;;5.97;;
62014;SDS011;47970;52.396;9.586;2023-03-01T05:55:09;16.77;;;6.55;;
62014;SDS011;47970;52.396;9.586;2023-03-01T05:57:34;15.45;;;7.18;;
62014;SDS011;47970;52.396;9.586;2023-03-01T05:59:59;19.63;;;7.35;;
62014;SDS011;47970;52.396;9.586;2023-03-01T06:02:25;16.30;;;7.83;;
62014;SDS011;47970;52.396;9.586;2023-03-01T06:04:50;15.13;;;6.85;;
62014;SDS011;47970;52.396;9.586;2023-03-01T06:07:16;15.27;;;7.13;;
62014;SDS011;47970;52.396;9.586;2023-03-01T06:09:41;20.77;;;7.80;;
62014;SDS011;47970;52.396;9.586;2023-03-01T06:12:06;25.98;;;9.45;;
62014;SDS011;47970;52.396;9.586;2023-03-01T06:14:31;19.92;;;8.80;;
62014;SDS011;47970;52.396;9.586;2023-03-01T06:16:57;23.40;;;8.57;;
62014;SDS011;47970;52.396;9.586;2023-03-01T06:19:23;17.15;;;7.50;;
62014;SDS011;47970;52.396;9.586;2023-03-01T06:21:48;18.67;;;7.70;;
62014;SDS011;47970;52.396;9.586;2023-03-01T06:24:13;25.00;;;7.05;;
62014;SDS011;47970;52.396;9.586;2023-03-01T06:26:38;20.60;;;8.13;;
62014;SDS011;47970;52.396;9.586;2023-03-01T06:29:03;16.53;;;6.50;;
62014;SDS011;47970;52.396;9.586;2023-03-01T06:31:29;16.83;;;7.53;;
62014;SDS011;47970;52.396;9.586;2023-03-01T06:33:54;20.20;;;7.85;;
62014;SDS011;47970;52.396;9.586;2023-03-01T06:36:19;18.70;;;7.57;;
62014;SDS011;47970;52.396;9.586;2023-03-01T06:38:46;21.75;;;7.30;;
62014;SDS011;47970;52.396;9.586;2023-03-01T06:41:11;17.08;;;7.32;;
62014;SDS011;47970;52.396;9.586;2023-03-01T06:43:36;18.67;;;7.93;;
62014;SDS011;47970;52.396;9.586;2023-03-01T06:46:05;17.17;;;8.10;;
62014;SDS011;47970;52.396;9.586;2023-03-01T06:48:31;21.83;;;8.10;;
62014;SDS011;47970;52.396;9.586;2023-03-01T06:51:00;15.82;;;6.93;;
62014;SDS011;47970;52.396;9.586;2023-03-01T06:53:28;16.30;;;7.15;;
62014;SDS011;47970;52.396;9.586;2023-03-01T06:55:54;22.50;;;8.73;;
62014;SDS011;47970;52.396;9.586;2023-03-01T06:58:19;16.15;;;7.22;;
62014;SDS011;47970;52.396;9.586;2023-03-01T07:00:44;19.80;;;8.30;;
62014;SDS011;47970;52.396;9.586;2023-03-01T07:03:09;17.17;;;7.97;;
62014;SDS011;47970;52.396;9.586;2023-03-01T07:05:35;19.50;;;8.75;;
62014;SDS011;47970;52.396;9.586;2023-03-01T07:08:00;18.15;;;7.80;;
62014;SDS011;47970;52.396;9.586;2023-03-01T07:10:25;17.20;;;7.50;;
62014;SDS011;47970;52.396;9.586;2023-03-01T07:12:53;18.48;;;8.52;;
62014;SDS011;47970;52.396;9.586;2023-03-01T07:15:19;18.33;;;7.10;;
62014;SDS011;47970;52.396;9.586;2023-03-01T07:17:44;14.20;;;7.10;;
62014;SDS011;47970;52.396;9.586;2023-03-01T07:20:12;15.57;;;6.88;;
62014;SDS011;47970;52.396;9.586;2023-03-01T07:22:39;25.33;;;7.47;;
62014;SDS011;47970;52.396;9.586;2023-03-01T07:25:04;14.18;;;6.20;;
62014;SDS011;47970;52.396;9.586;2023-03-01T07:27:29;21.67;;;8.80;;
62014;SDS011;47970;52.396;9.586;2023-03-01T07:29:55;20.15;;;7.88;;
62014;SDS011;47970;52.396;9.586;2023-03-01T07:32:20;14.13;;;6.77;;
62014;SDS011;47970;52.396;9.586;2023-03-01T07:34:45;20.25;;;7.45;;
62014;SDS011;47970;52.396;9.586;2023-03-01T07:37:10;15.33;;;7.80;;
62014;SDS011;47970;52.396;9.586;2023-03-01T07:39:35;18.42;;;8.00;;
62014;SDS011;47970;52.396;9.586;2023-03-01T07:42:01;18.13;;;8.40;;
62014;SDS011;47970;52.396;9.586;2023-03-01T07:44:26;14.50;;;7.57;;
62014;SDS011;47970;52.396;9.586;2023-03-01T07:46:51;14.65;;;7.55;;
62014;SDS011;47970;52.396;9.586;2023-03-01T07:49:21;15.60;;;7.43;;
62014;SDS011;47970;52.396;9.586;2023-03-01T07:51:46;17.15;;;7.78;;
62014;SDS011;47970;52.396;9.586;2023-03-01T07:54:11;15.52;;;8.27;;
62014;SDS011;47970;52.396;9.586;2023-03-01T07:56:36;17.87;;;7.27;;
62014;SDS011;47970;52.396;9.586;2023-03-01T07:59:02;19.52;;;8.25;;
62014;SDS011;47970;52.396;9.586;2023-03-01T08:01:27;19.60;;;9.43;;
62014;SDS011;47970;52.396;9.586;2023-03-01T08:03:52;14.90;;;8.17;;
62014;SDS011;47970;52.396;9.586;2023-03-01T08:06:17;18.70;;;7.97;;
62014;SDS011;47970;52.396;9.586;2023-03-01T08:08:43;16.73;;;8.40;;
62014;SDS011;47970;52.396;9.586;2023-03-01T08:11:10;17.17;;;8.00;;
62014;SDS011;47970;52.396;9.586;2023-03-01T08:13:35;19.02;;;8.70;;
62014;SDS011;47970;52.396;9.586;2023-03-01T08:16:04;20.40;;;7.25;;
62014;SDS011;47970;52.396;9.586;2023-03-01T08:18:30;15.20;;;6.93;;
62014;SDS011;47970;52.396;9.586;2023-03-01T08:20:55;18.10;;;7.85;;
62014;SDS011;47970;52.396;9.586;2023-03-01T08:23:20;16.07;;;7.70;;
62014;SDS011;47970;52.396;9.586;2023-03-01T08:25:45;14.87;;;7.83;;
62014;SDS011;47970;52.396;9.586;2023-03-01T08:28:11;16.03;;;7.33;;
62014;SDS011;47970;52.396;9.586;2023-03-01T08:30:36;16.67;;;7.63;;
62014;SDS011;47970;52.396;9.586;2023-03-01T08:33:01;15.60;;;7.72;;
62014;SDS011;47970;52.396;9.586;2023-03-01T08:35:26;14.07;;;7.03;;
62014;SDS011;47970;52.396;9.586;2023-03-01T08:37:51;16.60;;;7.20;;
62014;SDS011;47970;52.396;9.586;2023-03-01T08:40:17;11.43;;;7.03;;
62014;SDS011;47970;52.396;9.586;2023-03-01T08:42:42;13.65;;;7.43;;
62014;SDS011;47970;52.396;9.586;2023-03-01T08:45:08;13.60;;;8.07;;
62014;SDS011;47970;52.396;9.586;2023-03-01T08:47:33;13.35;;;7.10;;
62014;SDS011;47970;52.396;9.586;2023-03-01T08:49:59;13.90;;;7.07;;
62014;SDS011;47970;52.396;9.586;2023-03-01T08:52:25;14.80;;;7.32;;
62014;SDS011;47970;52.396;9.586;2023-03-01T08:54:51;15.30;;;7.55;;
62014;SDS011;47970;52.396;9.586;2023-03-01T08:57:16;12.00;;;6.60;;
62014;SDS011;47970;52.396;9.586;2023-03-01T08:59:41;17.30;;;6.73;;
62014;SDS011;47970;52.396;9.586;2023-03-01T09:02:10;12.27;;;7.25;;
62014;SDS011;47970;52.396;9.586;2023-03-01T09:07:01;12.70;;;6.38;;
62014;SDS011;47970;52.396;9.586;2023-03-01T09:09:27;14.77;;;6.10;;
62014;SDS011;47970;52.396;9.586;2023-03-01T09:11:52;14.40;;;5.95;;
62014;SDS011;47970;52.396;9.586;2023-03-01T09:14:17;11.88;;;5.72;;
62014;SDS011;47970;52.396;9.586;2023-03-01T09:16:42;14.73;;;6.15;;
62014;SDS011;47970;52.396;9.586;2023-03-01T09:19:08;11.60;;;5.82;;
62014;SDS011;47970;52.396;9.586;2023-03-01T09:21:33;13.10;;;5.93;;
62014;SDS011;47970;52.396;9.586;2023-03-01T09:23:58;10.80;;;6.00;;
62014;SDS011;47970;52.396;9.586;2023-03-01T09:26:23;13.35;;;5.78;;
62014;SDS011;47970;52.396;9.586;2023-03-01T09:28:49;12.63;;;6.03;;
62014;SDS011;47970;52.396;9.586;2023-03-01T09:31:15;12.43;;;5.22;;
62014;SDS011;47970;52.396;9.586;2023-03-01T09:33:41;16.52;;;5.20;;
62014;SDS011;47970;52.396;9.586;2023-03-01T09:36:09;13.23;;;5.10;;
62014;SDS011;47970;52.396;9.586;2023-03-01T09:38:35;10.55;;;5.43;;
62014;SDS011;47970;52.396;9.586;2023-03-01T09:41:00;12.23;;;5.70;;
62014;SDS011;47970;52.396;9.586;2023-03-01T09:46:00;15.20;;;5.20;;
62014;SDS011;47970;52.396;9.586;2023-03-01T09:48:37;11.35;;;6.00;;
62014;SDS011;47970;52.396;9.586;2023-03-01T09:51:05;13.02;;;6.03;;
62014;SDS011;47970;52.396;9.586;2023-03-01T09:53:33;10.88;;;5.80;;
62014;SDS011;47970;52.396;9.586;2023-03-01T09:58:34;9.30;;;5.35;;
62014;SDS011;47970;52.396;9.586;2023-03-01T10:01:10;16.33;;;5.40;;
62014;SDS011;47970;52.396;9.586;2023-03-01T10:03:39;12.77;;;5.40;;
62014;SDS011;47970;52.396;9.586;2023-03-01T10:08:42;14.23;;;5.97;;
62014;SDS011;47970;52.396;9.586;2023-03-01T10:11:21;12.80;;;5.75;;
62014;SDS011;47970;52.396;9.586;2023-03-01T10:13:54;11.38;;;5.00;;
62014;SDS011;47970;52.396;9.586;2023-03-01T10:16:28;10.15;;;5.22;;
62014;SDS011;47970;52.396;9.586;2023-03-01T10:19:02;11.93;;;5.85;;
62014;SDS011;47970;52.396;9.586;2023-03-01T10:21:28;12.32;;;6.47;;
62014;SDS011;47970;52.396;9.586;2023-03-01T10:23:56;8.82;;;4.45;;
62014;SDS011;47970;52.396;9.586;2023-03-01T10:26:32;9.63;;;4.65;;
62014;SDS011;47970;52.396;9.586;2023-03-01T10:29:09;12.75;;;4.07;;
62014;SDS011;47970;52.396;9.586;2023-03-01T10:31:44;8.15;;;4.45;;
62014;SDS011;47970;52.396;9.586;2023-03-01T10:36:39;8.77;;;4.03;;
62014;SDS011;47970;52.396;9.586;2023-03-01T10:39:11;10.20;;;4.72;;
62014;SDS011;47970;52.396;9.586;2023-03-01T10:41:37;12.25;;;4.50;;
62014;SDS011;47970;52.396;9.586;2023-03-01T10:44:09;11.30;;;4.50;;
62014;SDS011;47970;52.396;9.586;2023-03-01T10:47:00;20.30;;;5.70;;
62014;SDS011;47970;52.396;9.586;2023-03-01T10:49:26;11.35;;;4.07;;
62014;SDS011;47970;52.396;9.586;2023-03-01T10:51:52;6.10;;;3.07;;
62014;SDS011;47970;52.396;9.586;2023-03-01T10:54:22;8.48;;;4.05;;
62014;SDS011;47970;52.396;9.586;2023-03-01T10:56:52;8.55;;;3.80;;
62014;SDS011;47970;52.396;9.586;2023-03-01T10:59:26;7.60;;;3.40;;
62014;SDS011;47970;52.396;9.586;2023-03-01T11:04:35;8.68;;;3.17;;
62014;SDS011;47970;52.396;9.586;2023-03-01T11:07:01;6.72;;;2.78;;
62014;SDS011;47970;52.396;9.586;2023-03-01T11:09:30;13.07;;;4.50;;
62014;SDS011;47970;52.396;9.586;2023-03-01T11:11:59;7.32;;;3.13;;
62014;SDS011;47970;52.396;9.586;2023-03-01T11:14:26;7.18;;;2.90;;
62014;SDS011;47970;52.396;9.586;2023-03-01T11:17:13;6.75;;;3.30;;
62014;SDS011;47970;52.396;9.586;2023-03-01T11:19:37;7.95;;;3.47;;
62014;SDS011;47970;52.396;9.586;2023-03-01T11:22:04;9.95;;;3.20;;
62014;SDS011;47970;52.396;9.586;2023-03-01T11:24:37;8.25;;;3.40;;
62014;SDS011;47970;52.396;9.586;2023-03-01T11:27:06;5.30;;;2.90;;
62014;SDS011;47970;52.396;9.586;2023-03-01T11:29:36;8.35;;;3.33;;
62014;SDS011;47970;52.396;9.586;2023-03-01T11:32:02;7.28;;;3.15;;
62014;SDS011;47970;52.396;9.586;2023-03-01T11:34:38;7.22;;;2.70;;
62014;SDS011;47970;52.396;9.586;2023-03-01T11:37:07;6.95;;;3.15;;
62014;SDS011;47970;52.396;9.586;2023-03-01T11:39:39;6.75;;;2.78;;
62014;SDS011;47970;52.396;9.586;2023-03-01T11:44:35;7.90;;;3.08;;
62014;SDS011;47970;52.396;9.586;2023-03-01T11:49:51;6.28;;;3.10;;
62014;SDS011;47970;52.396;9.586;2023-03-01T12:16:29;5.18;;;2.78;;
62014;SDS011;47970;52.396;9.586;2023-03-01T12:24:02;7.35;;;2.92;;
62014;SDS011;47970;52.396;9.586;2023-03-01T12:27:20;6.20;;;2.75;;
62014;SDS011;47970;52.396;9.586;2023-03-01T12:29:25;6.68;;;3.03;;
62014;SDS011;47970;52.396;9.586;2023-03-01T12:37:54;7.88;;;2.80;;
62014;SDS011;47970;52.396;9.586;2023-03-01T12:50:23;5.18;;;2.35;;
62014;SDS011;47970;52.396;9.586;2023-03-01T12:52:51;6.53;;;2.42;;
62014;SDS011;47970;52.396;9.586;2023-03-01T12:55:31;4.25;;;2.00;;
62014;SDS011;47970;52.396;9.586;2023-03-01T13:06:10;6.90;;;2.58;;
62014;SDS011;47970;52.396;9.586;2023-03-01T13:11:03;5.00;;;2.40;;
62014;SDS011;47970;52.396;9.586;2023-03-01T13:13:30;6.68;;;2.35;;
62014;SDS011;47970;52.396;9.586;2023-03-01T13:15:55;6.72;;;2.50;;
62014;SDS011;47970;52.396;9.586;2023-03-01T13:20:56;11.00;;;2.55;;
62014;SDS011;47970;52.396;9.586;2023-03-01T13:30:56;6.75;;;2.67;;
62014;SDS011;47970;52.396;9.586;2023-03-01T13:35:53;6.25;;;2.60;;
62014;SDS011;47970;52.396;9.586;2023-03-01T13:38:38;5.47;;;2.53;;
62014;SDS011;47970;52.396;9.586;2023-03-01T13:41:06;6.25;;;2.83;;
62014;SDS011;47970;52.396;9.586;2023-03-01T13:43:35;6.93;;;2.80;;
62014;SDS011;47970;52.396;9.586;2023-03-01T13:46:02;5.63;;;2.47;;
62014;SDS011;47970;52.396;9.586;2023-03-01T13:48:32;6.43;;;2.53;;
62014;SDS011;47970;52.396;9.586;2023-03-01T13:51:08;5.75;;;2.58;;
62014;SDS011;47970;52.396;9.586;2023-03-01T13:53:35;4.88;;;2.50;;
62014;SDS011;47970;52.396;9.586;2023-03-01T13:56:02;5.50;;;3.00;;
62014;SDS011;47970;52.396;9.586;2023-03-01T13:58:33;4.53;;;2.47;;
62014;SDS011;47970;52.396;9.586;2023-03-01T14:01:18;6.72;;;2.60;;
62014;SDS011;47970;52.396;9.586;2023-03-01T14:03:45;5.80;;;2.67;;
62014;SDS011;47970;52.396;9.586;2023-03-01T14:06:14;6.07;;;2.70;;
62014;SDS011;47970;52.396;9.586;2023-03-01T14:08:40;6.60;;;2.50;;
62014;SDS011;47970;52.396;9.586;2023-03-01T14:16:28;5.20;;;2.47;;
62014;SDS011;47970;52.396;9.586;2023-03-01T14:24:31;5.78;;;2.60;;
62014;SDS011;47970;52.396;9.586;2023-03-01T14:26:57;5.65;;;2.63;;
62014;SDS011;47970;52.396;9.586;2023-03-01T14:29:27;7.55;;;2.58;;
62014;SDS011;47970;52.396;9.586;2023-03-01T14:31:52;4.88;;;2.67;;
62014;SDS011;47970;52.396;9.586;2023-03-01T14:34:22;4.75;;;2.40;;
62014;SDS011;47970;52.396;9.586;2023-03-01T14:39:16;5.15;;;2.38;;
62014;SDS011;47970;52.396;9.586;2023-03-01T14:41:41;7.60;;;3.25;;
62014;SDS011;47970;52.396;9.586;2023-03-01T14:44:07;4.97;;;2.90;;
62014;SDS011;47970;52.396;9.586;2023-03-01T14:46:40;5.63;;;2.75;;
62014;SDS011;47970;52.396;9.586;2023-03-01T14:51:34;5.90;;;2.70;;
62014;SDS011;47970;52.396;9.586;2023-03-01T14:54:00;5.47;;;2.30;;
62014;SDS011;47970;52.396;9.586;2023-03-01T14:56:25;4.28;;;2.30;;
62014;SDS011;47970;52.396;9.586;2023-03-01T14:58:51;5.17;;;2.63;;
62014;SDS011;47970;52.396;9.586;2023-03-01T15:01:17;4.95;;;2.70;;
62014;SDS011;47970;52.396;9.586;2023-03-01T15:03:49;6.15;;;2.60;;
62014;SDS011;47970;52.396;9.586;2023-03-01T15:06:16;4.38;;;2.20;;
62014;SDS011;47970;52.396;9.586;2023-03-01T15:08:44;4.85;;;2.50;;
62014;SDS011;47970;52.396;9.586;2023-03-01T15:13:38;6.72;;;2.35;;
62014;SDS011;47970;52.396;9.586;2023-03-01T15:16:05;6.53;;;2.22;;
62014;SDS011;47970;52.396;9.586;2023-03-01T15:18:31;6.07;;;2.90;;
62014;SDS011;47970;52.396;9.586;2023-03-01T15:21:05;4.90;;;2.45;;
62014;SDS011;47970;52.396;9.586;2023-03-01T15:23:30;3.70;;;2.30;;
62014;SDS011;47970;52.396;9.586;2023-03-01T15:25:56;4.85;;;2.30;;
62014;SDS011;47970;52.396;9.586;2023-03-01T15:28:36;6.70;;;2.65;;
62014;SDS011;47970;52.396;9.586;2023-03-01T15:31:23;8.23;;;2.60;;
62014;SDS011;47970;52.396;9.586;2023-03-01T15:33:49;5.75;;;2.70;;
62014;SDS011;47970;52.396;9.586;2023-03-01T15:38:58;6.80;;;2.85;;
62014;SDS011;47970;52.396;9.586;2023-03-01T15:43:50;17.88;;;6.25;;
62014;SDS011;47970;52.396;9.586;2023-03-01T15:49:35;11.48;;;4.47;;
62014;SDS011;47970;52.396;9.586;2023-03-01T15:51:39;10.23;;;4.40;;
62014;SDS011;47970;52.396;9.586;2023-03-01T15:54:38;9.37;;;3.83;;
62014;SDS011;47970;52.396;9.586;2023-03-01T15:56:56;8.45;;;3.67;;
62014;SDS011;47970;52.396;9.586;2023-03-01T15:59:21;7.43;;;3.65;;
62014;SDS011;47970;52.396;9.586;2023-03-01T16:01:47;5.47;;;2.75;;
62014;SDS011;47970;52.396;9.586;2023-03-01T16:04:14;9.02;;;3.25;;
62014;SDS011;47970;52.396;9.586;2023-03-01T16:06:45;6.20;;;2.88;;
62014;SDS011;47970;52.396;9.586;2023-03-01T16:09:10;7.18;;;3.05;;
62014;SDS011;47970;52.396;9.586;2023-03-01T16:11:37;8.10;;;3.88;;
62014;SDS011;47970;52.396;9.586;2023-03-01T16:14:04;8.05;;;3.28;;
62014;SDS011;47970;52.396;9.586;2023-03-01T16:16:29;8.60;;;3.20;;
62014;SDS011;47970;52.396;9.586;2023-03-01T16:18:55;5.87;;;2.60;;
62014;SDS011;47970;52.396;9.586;2023-03-01T16:21:21;5.55;;;2.72;;
62014;SDS011;47970;52.396;9.586;2023-03-01T16:23:47;6.45;;;3.00;;
62014;SDS011;47970;52.396;9.586;2023-03-01T16:26:12;7.88;;;3.10;;
62014;SDS011;47970;52.396;9.586;2023-03-01T16:28:38;8.98;;;2.88;;
62014;SDS011;47970;52.396;9.586;2023-03-01T16:31:03;6.30;;;2.90;;
62014;SDS011;47970;52.396;9.586;2023-03-01T16:33:29;8.18;;;3.20;;
62014;SDS011;47970;52.396;9.586;2023-03-01T16:35:54;10.53;;;3.83;;
62014;SDS011;47970;52.396;9.586;2023-03-01T16:38:19;19.23;;;6.47;;
62014;SDS011;47970;52.396;9.586;2023-03-01T16:40:48;10.60;;;4.45;;
62014;SDS011;47970;52.396;9.586;2023-03-01T16:43:14;14.75;;;4.63;;
62014;SDS011;47970;52.396;9.586;2023-03-01T16:45:39;8.43;;;4.13;;